createdAt,value
2018-11-06T00:00:01.407Z,9.61
2018-11-06T00:01:01.713Z,9.58
2018-11-06T00:02:01.530Z,9.50
2018-11-06T00:03:01.598Z,9.54
2018-11-06T00:04:01.661Z,9.56
2018-11-06T00:05:01.714Z,9.48
2018-11-06T00:06:01.794Z,9.58
2018-11-06T00:07:01.837Z,9.54
2018-11-06T00:08:01.905Z,9.55
2018-11-06T00:09:01.983Z,9.44
2018-11-06T00:10:02.030Z,9.41
2018-11-06T00:11:02.086Z,9.41
2018-11-06T00:12:02.146Z,9.43
2018-11-06T00:13:02.229Z,9.37
2018-11-06T00:14:02.269Z,9.26
2018-11-06T00:15:02.329Z,9.34
2018-11-06T00:16:02.393Z,9.19
2018-11-06T00:17:02.454Z,9.21
2018-11-06T00:18:02.521Z,9.40
2018-11-06T00:19:02.590Z,9.46
2018-11-06T00:20:02.693Z,9.51
2018-11-06T00:21:02.701Z,9.58
2018-11-06T00:22:02.762Z,9.59
2018-11-06T00:23:02.830Z,9.61
2018-11-06T00:24:02.910Z,9.66
2018-11-06T00:25:02.951Z,9.68
2018-11-06T00:26:03.018Z,9.72
2018-11-06T00:27:03.086Z,9.72
2018-11-06T00:28:03.222Z,9.69
2018-11-06T00:29:03.194Z,9.62
2018-11-06T00:30:03.254Z,9.58
2018-11-06T00:31:03.318Z,9.56
2018-11-06T00:32:03.374Z,9.58
2018-11-06T00:33:03.447Z,9.50
2018-11-06T00:34:03.515Z,9.56
2018-11-06T00:35:03.563Z,9.50
2018-11-06T00:36:03.623Z,9.43
2018-11-06T00:37:03.687Z,9.40
2018-11-06T00:38:03.768Z,9.37
2018-11-06T00:39:03.818Z,9.32
2018-11-06T00:40:03.870Z,9.34
2018-11-06T00:41:03.931Z,9.40
2018-11-06T00:42:03.995Z,9.26
2018-11-06T00:43:04.063Z,9.29
2018-11-06T00:44:04.135Z,9.34
2018-11-06T00:45:04.179Z,9.22
2018-11-06T00:46:04.235Z,9.19
2018-11-06T00:47:04.299Z,9.22
2018-11-06T00:48:04.447Z,9.26
2018-11-06T00:49:04.431Z,9.21
2018-11-06T00:50:04.488Z,9.14
2018-11-06T00:51:04.547Z,9.06
2018-11-06T00:52:04.603Z,9.13
2018-11-06T00:53:04.679Z,9.10
2018-11-06T00:54:04.739Z,9.14
2018-11-06T00:55:04.791Z,8.99
2018-11-06T00:56:04.859Z,9.00
2018-11-06T00:57:04.915Z,8.89
2018-11-06T00:58:04.984Z,8.94
2018-11-06T00:59:05.056Z,8.92
2018-11-06T01:00:05.099Z,8.85
2018-11-06T01:01:05.167Z,8.89
2018-11-06T01:02:05.224Z,8.89
2018-11-06T01:03:05.379Z,8.94
2018-11-06T01:04:05.350Z,8.89
2018-11-06T01:05:05.408Z,8.87
2018-11-06T01:06:05.471Z,8.87
2018-11-06T01:07:05.532Z,8.99
2018-11-06T01:08:05.606Z,8.89
2018-11-06T01:09:05.670Z,9.04
2018-11-06T01:10:05.718Z,9.08
2018-11-06T01:11:05.791Z,9.13
2018-11-06T01:12:05.836Z,9.13
2018-11-06T01:13:05.908Z,9.14
2018-11-06T01:14:05.971Z,9.16
2018-11-06T01:15:06.020Z,9.08
2018-11-06T01:16:06.084Z,9.18
2018-11-06T01:17:06.148Z,9.13
2018-11-06T01:18:06.308Z,9.16
2018-11-06T01:19:06.268Z,9.14
2018-11-06T01:20:06.328Z,9.18
2018-11-06T01:21:06.388Z,9.11
2018-11-06T01:22:06.452Z,9.08
2018-11-06T01:23:06.520Z,8.97
2018-11-06T01:24:06.580Z,8.85
2018-11-06T01:25:06.636Z,8.92
2018-11-06T01:26:06.700Z,8.94
2018-11-06T01:27:06.756Z,8.89
2018-11-06T01:28:06.833Z,8.85
2018-11-06T01:29:06.889Z,8.84
2018-11-06T01:30:06.944Z,8.87
2018-11-06T01:31:07.005Z,8.78
2018-11-06T01:32:07.065Z,8.81
2018-11-06T01:33:07.125Z,8.85
2018-11-06T01:34:07.457Z,8.97
2018-11-06T01:35:07.249Z,9.03
2018-11-06T01:36:07.321Z,9.03
2018-11-06T01:37:07.372Z,9.13
2018-11-06T01:38:07.439Z,9.14
2018-11-06T01:39:07.516Z,9.23
2018-11-06T01:40:07.561Z,9.22
2018-11-06T01:41:07.616Z,9.21
2018-11-06T01:42:07.677Z,9.23
2018-11-06T01:43:07.733Z,9.28
2018-11-06T01:44:07.809Z,9.26
2018-11-06T01:45:07.870Z,9.16
2018-11-06T01:46:07.925Z,9.22
2018-11-06T01:47:07.986Z,9.23
2018-11-06T01:48:08.049Z,9.23
2018-11-06T01:49:08.378Z,9.28
2018-11-06T01:50:08.169Z,9.28
2018-11-06T01:51:08.229Z,9.23
2018-11-06T01:52:08.290Z,9.19
2018-11-06T01:53:08.358Z,9.23
2018-11-06T01:54:08.424Z,9.36
2018-11-06T01:55:08.482Z,9.29
2018-11-06T01:56:08.530Z,9.37
2018-11-06T01:57:08.602Z,9.36
2018-11-06T01:58:08.662Z,9.32
2018-11-06T01:59:08.732Z,9.32
2018-11-06T02:00:08.786Z,9.26
2018-11-06T02:01:08.846Z,9.25
2018-11-06T02:02:08.908Z,9.26
2018-11-06T02:03:08.966Z,9.25
2018-11-06T02:04:09.034Z,9.28
2018-11-06T02:05:09.094Z,9.23
2018-11-06T02:06:09.159Z,9.22
2018-11-06T02:07:09.210Z,9.28
2018-11-06T02:08:09.271Z,9.21
2018-11-06T02:09:09.346Z,9.19
2018-11-06T02:10:09.406Z,9.19
2018-11-06T02:11:09.454Z,9.21
2018-11-06T02:12:09.514Z,9.21
2018-11-06T02:13:09.574Z,9.14
2018-11-06T02:14:09.651Z,9.13
2018-11-06T02:15:09.706Z,9.16
2018-11-06T02:16:09.758Z,9.13
2018-11-06T02:17:09.822Z,9.13
2018-11-06T02:18:09.883Z,9.11
2018-11-06T02:19:09.951Z,9.06
2018-11-06T02:20:10.011Z,9.02
2018-11-06T02:21:10.079Z,9.10
2018-11-06T02:22:10.127Z,9.11
2018-11-06T02:23:10.189Z,9.13
2018-11-06T02:24:10.251Z,9.18
2018-11-06T02:25:10.354Z,9.21
2018-11-06T02:26:10.379Z,9.16
2018-11-06T02:27:10.435Z,9.16
2018-11-06T02:28:10.495Z,9.16
2018-11-06T02:29:10.555Z,9.18
2018-11-06T02:30:10.626Z,9.19
2018-11-06T02:31:10.710Z,9.21
2018-11-06T02:32:10.788Z,9.13
2018-11-06T02:33:10.799Z,9.14
2018-11-06T02:34:10.864Z,9.13
2018-11-06T02:35:10.939Z,9.14
2018-11-06T02:36:10.991Z,9.11
2018-11-06T02:37:11.051Z,9.08
2018-11-06T02:38:11.107Z,9.06
2018-11-06T02:39:11.168Z,8.89
2018-11-06T02:40:11.320Z,8.91
2018-11-06T02:41:11.292Z,8.95
2018-11-06T02:42:11.353Z,8.89
2018-11-06T02:43:11.412Z,8.89
2018-11-06T02:44:11.477Z,8.97
2018-11-06T02:45:11.548Z,8.91
2018-11-06T02:46:11.609Z,9.00
2018-11-06T02:47:11.656Z,8.97
2018-11-06T02:48:11.721Z,9.00
2018-11-06T02:49:11.780Z,8.94
2018-11-06T02:50:11.849Z,8.92
2018-11-06T02:51:11.908Z,9.03
2018-11-06T02:52:11.964Z,9.06
2018-11-06T02:53:12.028Z,9.11
2018-11-06T02:54:12.088Z,9.14
2018-11-06T02:55:12.245Z,9.28
2018-11-06T02:56:12.212Z,9.19
2018-11-06T02:57:12.269Z,9.32
2018-11-06T02:58:12.345Z,9.39
2018-11-06T02:59:12.392Z,9.36
2018-11-06T03:00:12.480Z,9.31
2018-11-06T03:01:12.520Z,9.37
2018-11-06T03:02:12.577Z,9.41
2018-11-06T03:03:12.637Z,9.37
2018-11-06T03:04:12.697Z,9.43
2018-11-06T03:05:12.783Z,9.36
2018-11-06T03:06:12.828Z,9.39
2018-11-06T03:07:12.881Z,9.36
2018-11-06T03:08:12.944Z,9.36
2018-11-06T03:09:13.004Z,9.39
2018-11-06T03:10:13.100Z,9.44
2018-11-06T03:11:13.133Z,9.46
2018-11-06T03:12:13.199Z,9.48
2018-11-06T03:13:13.253Z,9.50
2018-11-06T03:14:13.309Z,9.55
2018-11-06T03:15:13.377Z,9.64
2018-11-06T03:16:13.441Z,9.51
2018-11-06T03:17:13.501Z,9.50
2018-11-06T03:18:13.554Z,9.51
2018-11-06T03:19:13.617Z,9.58
2018-11-06T03:20:13.685Z,9.59
2018-11-06T03:21:13.746Z,9.62
2018-11-06T03:22:13.801Z,9.58
2018-11-06T03:23:13.862Z,9.62
2018-11-06T03:24:13.921Z,9.61
2018-11-06T03:25:13.993Z,9.69
2018-11-06T03:26:14.054Z,9.64
2018-11-06T03:27:14.138Z,9.77
2018-11-06T03:28:14.174Z,9.69
2018-11-06T03:29:14.230Z,9.68
2018-11-06T03:30:14.565Z,9.72
2018-11-06T03:31:14.350Z,9.80
2018-11-06T03:32:14.422Z,9.76
2018-11-06T03:33:14.474Z,9.82
2018-11-06T03:34:14.546Z,9.72
2018-11-06T03:35:14.615Z,9.74
2018-11-06T03:36:14.671Z,9.77
2018-11-06T03:37:14.718Z,9.80
2018-11-06T03:38:14.787Z,9.84
2018-11-06T03:39:14.842Z,9.80
2018-11-06T03:40:14.902Z,9.83
2018-11-06T03:41:15.082Z,9.86
2018-11-06T03:42:15.027Z,9.87
2018-11-06T03:43:15.090Z,9.87
2018-11-06T03:44:15.155Z,9.89
2018-11-06T03:45:15.211Z,9.87
2018-11-06T03:46:15.279Z,9.89
2018-11-06T03:47:15.338Z,9.94
2018-11-06T03:48:15.391Z,9.87
2018-11-06T03:49:15.459Z,9.94
2018-11-06T03:50:15.519Z,10.02
2018-11-06T03:51:15.600Z,10.04
2018-11-06T03:52:15.646Z,10.09
2018-11-06T03:53:15.705Z,10.01
2018-11-06T03:54:15.763Z,10.05
2018-11-06T03:55:15.831Z,10.05
2018-11-06T03:56:15.895Z,10.01
2018-11-06T03:57:15.955Z,9.94
2018-11-06T03:58:16.011Z,9.94
2018-11-06T03:59:16.075Z,9.91
2018-11-06T04:00:16.141Z,9.95
2018-11-06T04:01:16.216Z,9.89
2018-11-06T04:02:16.255Z,9.80
2018-11-06T04:03:16.320Z,9.76
2018-11-06T04:04:16.383Z,9.86
2018-11-06T04:05:16.439Z,9.84
2018-11-06T04:06:16.512Z,9.86
2018-11-06T04:07:16.572Z,9.80
2018-11-06T04:08:16.627Z,9.77
2018-11-06T04:09:16.689Z,9.73
2018-11-06T04:10:16.747Z,9.72
2018-11-06T04:11:16.825Z,9.74
2018-11-06T04:12:16.880Z,9.76
2018-11-06T04:13:16.936Z,9.76
2018-11-06T04:14:17.000Z,9.74
2018-11-06T04:15:17.056Z,9.76
2018-11-06T04:16:17.388Z,9.86
2018-11-06T04:17:17.184Z,9.87
2018-11-06T04:18:17.253Z,9.87
2018-11-06T04:19:17.305Z,9.87
2018-11-06T04:20:17.382Z,9.83
2018-11-06T04:21:17.432Z,9.82
2018-11-06T04:22:17.504Z,9.83
2018-11-06T04:23:17.548Z,9.83
2018-11-06T04:24:17.612Z,9.95
2018-11-06T04:25:17.672Z,9.82
2018-11-06T04:26:17.736Z,9.89
2018-11-06T04:27:17.889Z,9.87
2018-11-06T04:28:17.863Z,9.91
2018-11-06T04:29:17.921Z,9.95
2018-11-06T04:30:17.985Z,9.95
2018-11-06T04:31:18.049Z,9.95
2018-11-06T04:32:18.205Z,9.91
2018-11-06T04:33:18.165Z,9.91
2018-11-06T04:34:18.233Z,9.91
2018-11-06T04:35:18.289Z,9.94
2018-11-06T04:36:18.353Z,9.99
2018-11-06T04:37:18.421Z,10.05
2018-11-06T04:38:18.481Z,10.02
2018-11-06T04:39:18.533Z,10.02
2018-11-06T04:40:18.598Z,10.04
2018-11-06T04:41:18.657Z,10.05
2018-11-06T04:42:18.721Z,10.02
2018-11-06T04:43:18.880Z,10.05
2018-11-06T04:44:18.845Z,10.09
2018-11-06T04:45:18.909Z,10.10
2018-11-06T04:46:19.094Z,10.02
2018-11-06T04:47:19.030Z,10.10
2018-11-06T04:48:19.118Z,10.04
2018-11-06T04:49:19.701Z,10.05
2018-11-06T04:50:19.228Z,10.13
2018-11-06T04:51:19.277Z,10.12
2018-11-06T04:52:19.342Z,10.13
2018-11-06T04:53:19.406Z,10.13
2018-11-06T04:54:19.490Z,10.15
2018-11-06T04:55:19.523Z,10.16
2018-11-06T04:56:19.590Z,10.20
2018-11-06T04:57:19.664Z,10.28
2018-11-06T04:58:19.716Z,10.20
2018-11-06T04:59:19.778Z,10.20
2018-11-06T05:00:19.833Z,10.20
2018-11-06T05:01:19.894Z,10.20
2018-11-06T05:02:19.962Z,10.25
2018-11-06T05:03:20.023Z,10.25
2018-11-06T05:04:20.087Z,10.20
2018-11-06T05:05:20.138Z,10.22
2018-11-06T05:06:20.207Z,10.28
2018-11-06T05:07:20.267Z,10.20
2018-11-06T05:08:20.335Z,10.20
2018-11-06T05:09:20.413Z,10.17
2018-11-06T05:10:20.451Z,10.20
2018-11-06T05:11:20.510Z,10.25
2018-11-06T05:12:20.579Z,10.23
2018-11-06T05:13:20.638Z,10.25
2018-11-06T05:14:20.755Z,10.26
2018-11-06T05:15:20.755Z,10.23
2018-11-06T05:16:20.820Z,10.16
2018-11-06T05:17:20.879Z,10.13
2018-11-06T05:18:20.951Z,10.10
2018-11-06T05:19:21.011Z,10.13
2018-11-06T05:20:21.063Z,10.15
2018-11-06T05:21:21.127Z,10.09
2018-11-06T05:22:21.187Z,10.09
2018-11-06T05:23:21.247Z,10.10
2018-11-06T05:24:21.339Z,10.02
2018-11-06T05:25:21.383Z,10.07
2018-11-06T05:26:21.448Z,10.01
2018-11-06T05:27:21.525Z,10.09
2018-11-06T05:28:21.556Z,10.05
2018-11-06T05:29:21.628Z,9.98
2018-11-06T05:30:21.687Z,9.94
2018-11-06T05:31:21.746Z,9.91
2018-11-06T05:32:21.804Z,9.87
2018-11-06T05:33:21.899Z,9.94
2018-11-06T05:34:21.935Z,9.94
2018-11-06T05:35:21.996Z,9.92
2018-11-06T05:36:22.056Z,9.89
2018-11-06T05:37:22.118Z,9.92
2018-11-06T05:38:22.175Z,9.89
2018-11-06T05:39:22.249Z,9.80
2018-11-06T05:40:22.432Z,9.92
2018-11-06T05:41:22.355Z,9.84
2018-11-06T05:42:22.424Z,9.87
2018-11-06T05:43:22.479Z,9.89
2018-11-06T05:44:22.544Z,9.87
2018-11-06T05:45:22.636Z,9.82
2018-11-06T05:46:22.676Z,9.82
2018-11-06T05:47:22.729Z,9.91
2018-11-06T05:48:22.788Z,9.84
2018-11-06T05:49:22.848Z,9.87
2018-11-06T05:50:22.922Z,9.84
2018-11-06T05:51:22.980Z,9.83
2018-11-06T05:52:23.033Z,9.84
2018-11-06T05:53:23.221Z,9.77
2018-11-06T05:54:23.156Z,9.76
2018-11-06T05:55:23.229Z,9.74
2018-11-06T05:56:23.384Z,9.73
2018-11-06T05:57:23.340Z,9.76
2018-11-06T05:58:23.404Z,9.76
2018-11-06T05:59:23.464Z,9.76
2018-11-06T06:00:23.579Z,9.68
2018-11-06T06:01:23.601Z,9.66
2018-11-06T06:02:23.658Z,9.68
2018-11-06T06:03:23.713Z,9.64
2018-11-06T06:04:23.773Z,9.61
2018-11-06T06:05:23.836Z,9.64
2018-11-06T06:06:23.905Z,9.61
2018-11-06T06:07:24.119Z,9.65
2018-11-06T06:08:24.021Z,9.62
2018-11-06T06:09:24.080Z,9.65
2018-11-06T06:10:24.141Z,9.55
2018-11-06T06:11:24.205Z,9.51
2018-11-06T06:12:24.329Z,9.48
2018-11-06T06:13:24.333Z,9.51
2018-11-06T06:14:24.394Z,9.56
2018-11-06T06:15:24.449Z,9.48
2018-11-06T06:16:24.513Z,9.56
2018-11-06T06:17:24.621Z,9.50
2018-11-06T06:18:24.646Z,9.46
2018-11-06T06:19:24.699Z,9.40
2018-11-06T06:20:24.758Z,9.43
2018-11-06T06:21:24.821Z,9.39
2018-11-06T06:22:24.910Z,9.32
2018-11-06T06:23:24.950Z,9.39
2018-11-06T06:24:25.006Z,9.34
2018-11-06T06:25:25.066Z,9.26
2018-11-06T06:26:25.129Z,9.23
2018-11-06T06:27:25.286Z,9.26
2018-11-06T06:28:25.278Z,9.22
2018-11-06T06:29:25.314Z,9.21
2018-11-06T06:30:25.389Z,9.11
2018-11-06T06:31:25.434Z,9.19
2018-11-06T06:32:25.506Z,9.16
2018-11-06T06:33:25.567Z,9.08
2018-11-06T06:34:25.649Z,9.06
2018-11-06T06:35:25.683Z,9.14
2018-11-06T06:36:25.742Z,9.04
2018-11-06T06:37:25.814Z,9.14
2018-11-06T06:38:25.928Z,9.00
2018-11-06T06:39:25.926Z,9.06
2018-11-06T06:40:25.990Z,8.94
2018-11-06T06:41:26.051Z,8.84
2018-11-06T06:42:26.398Z,8.91
2018-11-06T06:43:26.175Z,8.92
2018-11-06T06:44:26.238Z,8.84
2018-11-06T06:45:26.298Z,8.81
2018-11-06T06:46:26.473Z,8.81
2018-11-06T06:47:26.431Z,8.81
2018-11-06T06:48:26.501Z,8.84
2018-11-06T06:49:26.542Z,8.76
2018-11-06T06:50:26.606Z,8.81
2018-11-06T06:51:26.666Z,8.85
2018-11-06T06:52:26.738Z,8.74
2018-11-06T06:53:26.794Z,8.73
2018-11-06T06:54:27.066Z,8.74
2018-11-06T06:55:26.912Z,8.73
2018-11-06T06:56:26.975Z,8.73
2018-11-06T06:57:27.042Z,8.76
2018-11-06T06:58:27.102Z,8.71
2018-11-06T06:59:27.165Z,8.66
2018-11-06T07:00:27.219Z,8.63
2018-11-06T07:01:27.299Z,8.64
2018-11-06T07:02:27.383Z,8.66
2018-11-06T07:03:27.411Z,8.69
2018-11-06T07:04:27.463Z,8.66
2018-11-06T07:05:27.527Z,8.67
2018-11-06T07:06:27.588Z,8.61
2018-11-06T07:07:27.655Z,8.63
2018-11-06T07:08:27.720Z,8.67
2018-11-06T07:09:27.771Z,8.67
2018-11-06T07:10:27.839Z,8.70
2018-11-06T07:11:27.896Z,8.73
2018-11-06T07:12:27.967Z,8.66
2018-11-06T07:13:28.024Z,8.69
2018-11-06T07:14:28.080Z,8.67
2018-11-06T07:15:28.140Z,8.64
2018-11-06T07:16:28.203Z,8.73
2018-11-06T07:17:28.263Z,8.70
2018-11-06T07:18:28.500Z,8.69
2018-11-06T07:19:28.384Z,8.76
2018-11-06T07:20:28.447Z,8.79
2018-11-06T07:21:28.508Z,9.03
2018-11-06T07:22:28.572Z,9.23
2018-11-06T07:23:28.640Z,9.41
2018-11-06T07:24:28.699Z,9.62
2018-11-06T07:25:28.755Z,9.91
2018-11-06T07:26:28.815Z,10.23
2018-11-06T07:27:28.876Z,10.44
2018-11-06T07:28:28.948Z,10.51
2018-11-06T07:29:29.008Z,10.69
2018-11-06T07:30:29.071Z,10.64
2018-11-06T07:31:29.125Z,10.64
2018-11-06T07:32:29.189Z,10.69
2018-11-06T07:33:29.521Z,10.64
2018-11-06T07:34:29.368Z,10.63
2018-11-06T07:35:29.631Z,10.56
2018-11-06T07:36:29.433Z,10.59
2018-11-06T07:37:29.496Z,10.64
2018-11-06T07:38:29.564Z,10.69
2018-11-06T07:39:29.630Z,10.84
2018-11-06T07:40:29.734Z,10.93
2018-11-06T07:41:29.744Z,10.99
2018-11-06T07:42:29.812Z,11.02
2018-11-06T07:43:29.876Z,11.12
2018-11-06T07:44:29.941Z,11.27
2018-11-06T07:45:29.996Z,11.60
2018-11-06T07:46:30.061Z,12.04
2018-11-06T07:47:30.117Z,12.53
2018-11-06T07:48:30.365Z,13.11
2018-11-06T07:49:30.245Z,13.60
2018-11-06T07:50:30.424Z,13.68
2018-11-06T07:51:30.369Z,13.70
2018-11-06T07:52:30.433Z,13.86
2018-11-06T07:53:30.538Z,13.87
2018-11-06T07:54:30.569Z,14.07
2018-11-06T07:55:30.651Z,14.33
2018-11-06T07:56:30.692Z,14.69
2018-11-06T07:57:30.753Z,14.88
2018-11-06T07:58:30.825Z,15.07
2018-11-06T07:59:30.889Z,15.19
2018-11-06T08:00:30.945Z,15.27
2018-11-06T08:01:31.014Z,15.54
2018-11-06T08:02:31.077Z,15.65
2018-11-06T08:03:31.413Z,15.84
2018-11-06T08:04:31.206Z,16.02
2018-11-06T08:05:31.269Z,16.15
2018-11-06T08:06:31.431Z,16.26
2018-11-06T08:07:31.402Z,16.51
2018-11-06T08:08:31.478Z,16.74
2018-11-06T08:09:31.683Z,16.89
2018-11-06T08:10:31.598Z,17.12
2018-11-06T08:11:31.666Z,17.42
2018-11-06T08:12:31.732Z,17.79
2018-11-06T08:13:31.802Z,17.98
2018-11-06T08:14:31.917Z,18.05
2018-11-06T08:15:31.930Z,18.20
2018-11-06T08:16:31.998Z,18.26
2018-11-06T08:17:32.062Z,18.22
2018-11-06T08:18:32.222Z,18.18
2018-11-06T08:19:32.194Z,18.05
2018-11-06T08:20:32.314Z,18.03
2018-11-06T08:21:32.330Z,18.04
2018-11-06T08:22:32.398Z,18.11
2018-11-06T08:23:32.504Z,18.22
2018-11-06T08:24:32.542Z,18.25
2018-11-06T08:25:32.599Z,18.41
2018-11-06T08:26:32.671Z,18.58
2018-11-06T08:27:32.791Z,18.66
2018-11-06T08:28:32.807Z,18.62
2018-11-06T08:29:32.879Z,18.74
2018-11-06T08:30:33.039Z,18.70
2018-11-06T08:31:33.518Z,18.60
2018-11-06T08:32:33.513Z,18.68
2018-11-06T08:33:33.175Z,18.55
2018-11-06T08:34:33.203Z,18.60
2018-11-06T08:35:33.270Z,18.75
2018-11-06T08:36:33.428Z,18.84
2018-11-06T08:37:33.407Z,18.96
2018-11-06T08:38:33.484Z,19.08
2018-11-06T08:39:33.547Z,19.09
2018-11-06T08:40:33.611Z,19.07
2018-11-06T08:41:33.683Z,19.18
2018-11-06T08:42:33.797Z,19.16
2018-11-06T08:43:33.819Z,19.27
2018-11-06T08:44:33.888Z,19.36
2018-11-06T08:45:33.948Z,19.47
2018-11-06T08:46:34.020Z,19.66
2018-11-06T08:47:34.091Z,19.77
2018-11-06T08:48:34.419Z,19.99
2018-11-06T08:49:34.223Z,19.77
2018-11-06T08:50:34.288Z,19.37
2018-11-06T08:51:34.357Z,19.09
2018-11-06T08:52:34.428Z,18.77
2018-11-06T08:53:34.504Z,18.66
2018-11-06T08:54:34.622Z,18.52
2018-11-06T08:55:34.628Z,18.20
2018-11-06T08:56:34.700Z,18.11
2018-11-06T08:57:34.764Z,18.00
2018-11-06T08:58:34.840Z,17.79
2018-11-06T08:59:34.908Z,17.89
2018-11-06T09:00:34.968Z,17.95
2018-11-06T09:01:35.037Z,18.11
2018-11-06T09:02:35.171Z,18.33
2018-11-06T09:03:35.227Z,18.38
2018-11-06T09:04:35.236Z,18.35
2018-11-06T09:05:35.306Z,18.35
2018-11-06T09:06:35.373Z,18.53
2018-11-06T09:07:35.437Z,18.49
2018-11-06T09:08:35.515Z,18.53
2018-11-06T09:09:35.584Z,18.50
2018-11-06T09:10:35.641Z,18.44
2018-11-06T09:11:35.709Z,18.38
2018-11-06T09:12:35.777Z,18.34
2018-11-06T09:13:35.850Z,18.33
2018-11-06T09:14:35.917Z,18.31
2018-11-06T09:15:35.977Z,18.22
2018-11-06T09:16:36.049Z,18.38
2018-11-06T09:17:36.113Z,18.37
2018-11-06T09:18:36.291Z,18.34
2018-11-06T09:19:36.249Z,18.34
2018-11-06T09:20:36.317Z,18.43
2018-11-06T09:21:36.381Z,18.33
2018-11-06T09:22:36.453Z,18.19
2018-11-06T09:23:36.526Z,18.19
2018-11-06T09:24:36.589Z,18.35
2018-11-06T09:25:36.649Z,18.44
2018-11-06T09:26:36.717Z,18.41
2018-11-06T09:27:36.781Z,18.43
2018-11-06T09:28:36.860Z,18.55
2018-11-06T09:29:36.925Z,18.41
2018-11-06T09:30:36.986Z,18.43
2018-11-06T09:31:37.050Z,18.45
2018-11-06T09:32:37.117Z,18.49
2018-11-06T09:33:37.186Z,18.40
2018-11-06T09:34:37.282Z,18.52
2018-11-06T09:35:37.318Z,18.53
2018-11-06T09:36:37.386Z,18.18
2018-11-06T09:37:37.454Z,18.13
2018-11-06T09:38:37.521Z,18.11
2018-11-06T09:39:37.594Z,17.97
2018-11-06T09:40:37.674Z,17.86
2018-11-06T09:41:37.722Z,17.80
2018-11-06T09:42:37.790Z,17.52
2018-11-06T09:43:37.858Z,17.49
2018-11-06T09:44:37.931Z,17.54
2018-11-06T09:45:37.999Z,17.79
2018-11-06T09:46:38.054Z,17.79
2018-11-06T09:47:38.122Z,17.95
2018-11-06T09:48:38.186Z,17.95
2018-11-06T09:49:39.098Z,18.10
2018-11-06T09:50:38.322Z,18.22
2018-11-06T09:51:38.386Z,18.33
2018-11-06T09:52:39.174Z,18.38
2018-11-06T09:53:38.522Z,18.58
2018-11-06T09:54:38.594Z,18.73
2018-11-06T09:55:38.654Z,18.96
2018-11-06T09:56:38.719Z,19.07
2018-11-06T09:57:38.787Z,19.02
2018-11-06T09:58:38.858Z,18.88
2018-11-06T09:59:38.926Z,18.92
2018-11-06T10:00:38.994Z,18.98
2018-11-06T10:01:39.054Z,18.90
2018-11-06T10:02:39.119Z,18.78
2018-11-06T10:03:39.187Z,18.89
2018-11-06T10:04:39.343Z,18.83
2018-11-06T10:05:39.321Z,18.93
2018-11-06T10:06:39.521Z,18.81
2018-11-06T10:07:39.498Z,18.92
2018-11-06T10:08:39.519Z,18.96
2018-11-06T10:09:39.595Z,18.80
2018-11-06T10:10:39.660Z,18.62
2018-11-06T10:11:39.721Z,18.71
2018-11-06T10:12:39.788Z,18.60
2018-11-06T10:13:39.851Z,18.73
2018-11-06T10:14:39.928Z,18.56
2018-11-06T10:15:40.052Z,18.63
2018-11-06T10:16:40.052Z,18.44
2018-11-06T10:17:40.120Z,18.47
2018-11-06T10:18:40.183Z,18.49
2018-11-06T10:19:40.268Z,18.29
2018-11-06T10:20:40.315Z,18.22
2018-11-06T10:21:40.387Z,18.18
2018-11-06T10:22:40.452Z,18.15
2018-11-06T10:23:40.516Z,18.13
2018-11-06T10:24:40.588Z,18.03
2018-11-06T10:25:40.659Z,17.94
2018-11-06T10:26:40.719Z,17.79
2018-11-06T10:27:40.781Z,17.57
2018-11-06T10:28:40.852Z,17.51
2018-11-06T10:29:40.928Z,17.57
2018-11-06T10:30:41.022Z,17.45
2018-11-06T10:31:41.045Z,17.36
2018-11-06T10:32:41.112Z,17.39
2018-11-06T10:33:41.177Z,17.42
2018-11-06T10:34:41.512Z,17.68
2018-11-06T10:35:41.308Z,17.74
2018-11-06T10:36:41.380Z,17.82
2018-11-06T10:37:41.448Z,17.86
2018-11-06T10:38:41.512Z,17.86
2018-11-06T10:39:41.580Z,17.89
2018-11-06T10:40:41.650Z,17.83
2018-11-06T10:41:41.712Z,17.83
2018-11-06T10:42:41.778Z,17.79
2018-11-06T10:43:41.889Z,17.78
2018-11-06T10:44:41.912Z,17.79
2018-11-06T10:45:41.976Z,17.78
2018-11-06T10:46:42.039Z,17.70
2018-11-06T10:47:42.101Z,17.71
2018-11-06T10:48:42.169Z,17.68
2018-11-06T10:49:42.257Z,17.54
2018-11-06T10:50:42.301Z,17.67
2018-11-06T10:51:42.389Z,17.68
2018-11-06T10:52:42.433Z,17.60
2018-11-06T10:53:42.498Z,17.68
2018-11-06T10:54:42.573Z,17.70
2018-11-06T10:55:42.636Z,17.56
2018-11-06T10:56:42.701Z,17.51
2018-11-06T10:57:42.760Z,17.67
2018-11-06T10:58:42.849Z,17.63
2018-11-06T10:59:42.905Z,17.85
2018-11-06T11:00:42.965Z,17.76
2018-11-06T11:01:43.028Z,17.74
2018-11-06T11:02:43.089Z,17.82
2018-11-06T11:03:43.158Z,17.80
2018-11-06T11:04:43.221Z,17.87
2018-11-06T11:05:43.390Z,17.87
2018-11-06T11:06:43.354Z,17.87
2018-11-06T11:07:43.422Z,17.89
2018-11-06T11:08:43.485Z,17.95
2018-11-06T11:09:43.550Z,17.97
2018-11-06T11:10:43.625Z,17.95
2018-11-06T11:11:43.689Z,17.97
2018-11-06T11:12:43.749Z,18.04
2018-11-06T11:13:43.815Z,18.01
2018-11-06T11:14:43.890Z,18.04
2018-11-06T11:15:43.954Z,17.95
2018-11-06T11:16:44.018Z,17.98
2018-11-06T11:17:44.082Z,17.97
2018-11-06T11:18:44.142Z,17.85
2018-11-06T11:19:44.214Z,17.98
2018-11-06T11:20:44.274Z,17.98
2018-11-06T11:21:44.607Z,18.03
2018-11-06T11:22:44.406Z,18.11
2018-11-06T11:23:44.471Z,18.20
2018-11-06T11:24:44.538Z,18.25
2018-11-06T11:25:44.669Z,18.26
2018-11-06T11:26:44.680Z,18.34
2018-11-06T11:27:44.742Z,18.20
2018-11-06T11:28:44.805Z,18.25
2018-11-06T11:29:44.868Z,18.35
2018-11-06T11:30:44.931Z,18.43
2018-11-06T11:31:45.007Z,18.38
2018-11-06T11:32:45.074Z,18.43
2018-11-06T11:33:45.153Z,18.34
2018-11-06T11:34:45.195Z,18.19
2018-11-06T11:35:45.260Z,18.33
2018-11-06T11:36:45.327Z,18.43
2018-11-06T11:37:45.599Z,18.38
2018-11-06T11:38:45.459Z,18.37
2018-11-06T11:39:45.523Z,18.37
2018-11-06T11:40:45.587Z,18.41
2018-11-06T11:41:45.655Z,18.38
2018-11-06T11:42:45.727Z,18.40
2018-11-06T11:43:45.795Z,18.49
2018-11-06T11:44:45.851Z,18.50
2018-11-06T11:45:45.979Z,18.47
2018-11-06T11:46:45.983Z,18.60
2018-11-06T11:47:46.055Z,18.56
2018-11-06T11:48:46.127Z,18.60
2018-11-06T11:49:46.182Z,18.53
2018-11-06T11:50:46.248Z,18.53
2018-11-06T11:51:46.311Z,18.56
2018-11-06T11:52:46.383Z,18.53
2018-11-06T11:53:46.466Z,18.47
2018-11-06T11:54:46.508Z,18.47
2018-11-06T11:55:46.571Z,18.58
2018-11-06T11:56:46.640Z,18.60
2018-11-06T11:57:46.712Z,18.60
2018-11-06T11:58:46.780Z,18.75
2018-11-06T11:59:46.836Z,18.70
2018-11-06T12:00:46.904Z,18.77
2018-11-06T12:01:46.970Z,18.80
2018-11-06T12:02:47.039Z,18.83
2018-11-06T12:03:47.104Z,18.83
2018-11-06T12:04:47.164Z,18.95
2018-11-06T12:05:47.230Z,18.86
2018-11-06T12:06:47.296Z,18.92
2018-11-06T12:07:47.368Z,18.86
2018-11-06T12:08:47.432Z,18.95
2018-11-06T12:09:47.496Z,18.93
2018-11-06T12:10:47.560Z,18.93
2018-11-06T12:11:47.624Z,18.93
2018-11-06T12:12:47.696Z,18.96
2018-11-06T12:13:47.760Z,19.02
2018-11-06T12:14:47.820Z,19.07
2018-11-06T12:15:47.884Z,19.04
2018-11-06T12:16:47.952Z,19.14
2018-11-06T12:17:48.024Z,19.12
2018-11-06T12:18:48.092Z,19.14
2018-11-06T12:19:48.148Z,19.21
2018-11-06T12:20:48.217Z,19.19
2018-11-06T12:21:48.281Z,19.22
2018-11-06T12:22:48.356Z,19.22
2018-11-06T12:23:48.421Z,19.33
2018-11-06T12:24:48.694Z,19.47
2018-11-06T12:25:48.676Z,19.52
2018-11-06T12:26:48.616Z,19.54
2018-11-06T12:27:48.684Z,19.54
2018-11-06T12:28:48.749Z,19.66
2018-11-06T12:29:48.813Z,19.66
2018-11-06T12:30:48.873Z,19.66
2018-11-06T12:31:48.941Z,19.67
2018-11-06T12:32:49.013Z,19.67
2018-11-06T12:33:49.086Z,19.69
2018-11-06T12:34:49.137Z,19.76
2018-11-06T12:35:49.213Z,19.77
2018-11-06T12:36:49.301Z,19.71
2018-11-06T12:37:49.361Z,19.76
2018-11-06T12:38:49.410Z,19.84
2018-11-06T12:39:49.473Z,19.84
2018-11-06T12:40:49.533Z,19.81
2018-11-06T12:41:49.601Z,19.86
2018-11-06T12:42:49.686Z,19.82
2018-11-06T12:43:49.738Z,19.81
2018-11-06T12:44:49.797Z,19.79
2018-11-06T12:45:49.870Z,19.71
2018-11-06T12:46:49.930Z,19.76
2018-11-06T12:47:50.003Z,19.85
2018-11-06T12:48:50.070Z,19.84
2018-11-06T12:49:50.131Z,19.73
2018-11-06T12:50:50.198Z,19.81
2018-11-06T12:51:50.262Z,19.71
2018-11-06T12:52:50.423Z,19.74
2018-11-06T12:53:50.394Z,19.76
2018-11-06T12:54:50.458Z,19.79
2018-11-06T12:55:50.526Z,19.81
2018-11-06T12:56:50.594Z,19.84
2018-11-06T12:57:50.670Z,19.85
2018-11-06T12:58:50.730Z,19.96
2018-11-06T12:59:50.791Z,19.94
2018-11-06T13:00:50.854Z,19.94
2018-11-06T13:01:50.923Z,19.95
2018-11-06T13:02:50.994Z,19.92
2018-11-06T13:03:51.058Z,19.96
2018-11-06T13:04:51.121Z,19.95
2018-11-06T13:05:51.187Z,20.00